Tinker Air Force Base
KTIK : now visible

Airfield :











YOU CAN JOIN US ON...

 
LOGIN :

Register | Disclaimer

   EN    FR    IT 

 









Legend :    VFR   Marginal VFR   IFR   Intensive IFR   Very Intensive IFR
Visi :
Ceiling :
>= 8 km
>= 3000ft
5 to 8 km
1000 to 3000 ft
1500m to 5 km
500 to 1000 ft
800 to 1500m
200 to 500 ft
< 800m
< 200 ft
Symbols :   Thunderstorms  Fog  Heavy snow  Heavy precipitations  Wind > 20 kt






- Airport Elevation : 1291 ft


KTIK - Tinker Air Force Base

CURRENT METAR :
  • 242156Z AUTO 02008KT 10SM OVC014 09/05 A2986 RMK AO2 SLP120 T00930049

TAF AMD TAF KTIK
Valid from the 24 at 21:00 until the 26 at 00:00 UTC


242150Z 2421/2524 04009KT 8000 BR OVC010 QNH2984INS
BECMG 2502/2503 05012KT 6000 -SHRA VCTS OVC007CB 510035 QNH2953INS
TEMPO 2506/2510 24015G25KT 2400 -TSRAGR OVC004CB
BECMG 2509/2510 28015KT 8000 -RA OVC001 510016 QNH2956INS
BECMG 2516/2517 24012G18KT 9999 NSW SKC 510023 QNH2962INS TX09/2422Z TN04/2514Z
KZFW FIR / North America



MET'MAP, your aeronautical weather chart ! - Copyright ORBIFLY December 2007 - Disclaimer

ORBIFLY MET'MAP TEAM :

Programming & Development : Alexandra Zaïnal
Concept & original design : Baudouin d'Aumeries
Assistance for programming : Marc-Olivier Méhu
Technical & hardware support : Manuel Goepfert

Contact : metmap@orbifly.com




SOURCES & CREDITS :

   NOAA       Earth
Advisory